Главная страница
METAR-TAF:

METAR-TAF

Аэропорты :

Сундсвалль-Härnösand, Швеция

широта: 62-32N, долгота: 017-27E, высота над уровнем моря: 4 м

Текущие метеонаблюдения

Эта сводка был подготовлена 40 минут назад, в 15:50 UTC
Ветер 2 Узел переменных направлений
Температура -5°C
Влажность 100%
Давление 1025 hPa
Видимость 10 км и более
Нет облачности ниже 1500 м, и нет кучево-дождевой облачности

METAR: ESNN 151550Z VRB02KT CAVOK M05/M05 Q1025 R16/19//50

Время: 17:30 (16:30 UTC)

Прогноз

Эта сводка был подготовлена 2 часа и 0 минут назад, в 14:30 UTC
Прогноз действительный с 15-го 15 UTC до 15-го 22 UTC
Ветер 2 Узел переменных направлений
Видимость 10 км и более
Нет облачности ниже 1500 м, и нет кучево-дождевой облачности
Вероятность 40%
С 15-го 18 UTC до 15-го 22 UTC
Видимость: 2000 м
клочья тумана

TAF: ESNN 151430Z 1515/1522 VRB02KT CAVOK PROB40 1518/1522 2000 BCFG

Метеонаблюдения и прогнозы для более 4000 аэропортов (сводки METAR и TAF).

Имеющиеся станции представлены на карте желтыми и красными точками.

Чтобы увидеть название станции, наведите на нее мышь.

Затем щелкните, чтобы увидеть метеонаблюдения и метеопрогнозы.

Управление картой: чтобы увеличить масштаб, щелкните зеленые кнопки с черным крестиком; чтобы уменьшить масштаб, щелкните зеленую кнопку с тире; для просмотра соседних карт щелкайте зеленые стрелки.


METAR-TAF: